createdAt,value
2023-04-10T05:10:38.162Z,12.90
2023-04-10T05:13:41.595Z,13.38
2023-04-10T05:16:44.195Z,13.77
2023-04-10T05:19:46.658Z,15.80
2023-04-10T05:22:49.135Z,13.88
2023-04-10T05:25:53.129Z,13.02
2023-04-10T05:28:56.058Z,11.85
2023-04-10T05:31:58.790Z,11.93
2023-04-10T05:35:01.260Z,10.18
2023-04-10T05:38:03.712Z,10.52
2023-04-10T05:41:07.709Z,9.88
2023-04-10T05:44:10.417Z,8.68
2023-04-10T05:47:12.880Z,8.25
2023-04-10T05:50:15.486Z,7.70
2023-04-10T05:53:21.099Z,7.32
2023-04-10T05:56:25.178Z,7.25
2023-04-10T05:59:27.638Z,7.10
2023-04-10T06:02:30.326Z,7.18
2023-04-10T06:05:32.954Z,5.88
2023-04-10T06:08:35.681Z,6.13
2023-04-10T06:11:39.557Z,6.85
2023-04-10T06:14:42.030Z,6.53
2023-04-10T06:17:44.756Z,6.15
2023-04-10T06:20:47.252Z,6.68
2023-04-10T06:23:49.706Z,6.32
2023-04-10T06:26:53.496Z,6.40
2023-04-10T06:29:56.062Z,6.97
2023-04-10T06:32:58.717Z,7.38
2023-04-10T06:36:01.384Z,7.07
2023-04-10T06:39:03.972Z,6.78
2023-04-10T06:42:07.865Z,6.78
2023-04-10T06:45:11.305Z,7.55
2023-04-10T06:48:14.483Z,9.82
2023-04-10T06:51:17.220Z,7.03
2023-04-10T06:54:19.836Z,7.80
2023-04-10T06:57:23.753Z,6.68
2023-04-10T07:00:26.576Z,6.38
2023-04-10T07:03:29.192Z,6.32
2023-04-10T07:06:31.763Z,6.25
2023-04-10T07:09:34.234Z,6.65
2023-04-10T07:12:38.118Z,6.78
2023-04-10T07:15:40.599Z,5.40
2023-04-10T07:18:44.660Z,5.43
2023-04-10T07:21:50.095Z,5.90
2023-04-10T07:24:52.687Z,6.10
2023-04-10T07:27:56.681Z,4.60
2023-04-10T07:30:59.126Z,5.85
2023-04-10T07:34:03.448Z,5.63
2023-04-10T07:37:05.990Z,4.72
2023-04-10T07:40:10.021Z,5.25
2023-04-10T07:43:13.882Z,4.60
2023-04-10T07:46:16.441Z,5.07
2023-04-10T07:49:19.088Z,4.53
2023-04-10T07:52:21.583Z,4.82
2023-04-10T07:55:24.120Z,4.55
2023-04-10T07:58:28.006Z,4.60
2023-04-10T08:01:30.627Z,4.53
2023-04-10T08:04:33.494Z,4.88
2023-04-10T08:07:36.396Z,5.00
2023-04-10T08:10:39.508Z,5.85
2023-04-10T08:13:43.361Z,5.30
2023-04-10T08:16:45.952Z,4.80
2023-04-10T08:19:48.498Z,5.07
2023-04-10T08:22:51.395Z,4.93
2023-04-10T08:25:53.865Z,5.10
2023-04-10T08:28:59.843Z,5.38
2023-04-10T08:32:02.410Z,5.95
2023-04-10T08:35:05.635Z,5.70
2023-04-10T08:38:14.103Z,5.53
2023-04-10T08:41:19.876Z,4.70
2023-04-10T08:44:23.898Z,5.75
2023-04-10T08:47:29.464Z,4.60
2023-04-10T08:50:35.254Z,5.20
2023-04-10T08:53:41.198Z,5.18
2023-04-10T08:56:46.816Z,4.60
2023-04-10T08:59:52.404Z,4.28
2023-04-10T09:02:58.373Z,4.80
2023-04-10T09:06:03.270Z,4.65
2023-04-10T09:09:06.676Z,5.15
2023-04-10T09:12:09.239Z,5.38
2023-04-10T09:15:13.936Z,5.03
2023-04-10T09:18:16.460Z,5.10
2023-04-10T09:21:20.633Z,4.93
2023-04-10T09:24:23.887Z,5.10
2023-04-10T09:27:31.249Z,5.05
2023-04-10T09:30:37.545Z,5.15
2023-04-10T09:33:40.041Z,5.72
2023-04-10T09:36:43.271Z,5.55
2023-04-10T09:39:46.064Z,4.90
2023-04-10T09:42:48.736Z,5.00
2023-04-10T09:45:54.164Z,4.75
2023-04-10T09:48:57.215Z,5.63
2023-04-10T09:51:59.789Z,5.55
2023-04-10T09:55:08.594Z,5.15
2023-04-10T09:58:12.191Z,5.32
2023-04-10T10:01:16.497Z,5.90
2023-04-10T10:04:19.464Z,5.70
2023-04-10T10:07:24.843Z,4.85
2023-04-10T10:10:27.608Z,5.13
2023-04-10T10:13:39.502Z,4.68
2023-04-10T10:16:48.696Z,4.65
2023-04-10T10:19:57.973Z,4.50
2023-04-10T10:23:03.548Z,4.38
2023-04-10T10:26:07.377Z,5.15
2023-04-10T10:29:13.369Z,4.18
2023-04-10T10:32:18.320Z,3.97
2023-04-10T10:35:22.408Z,4.55
2023-04-10T10:38:26.308Z,4.55
2023-04-10T10:41:33.703Z,3.75
2023-04-10T10:44:44.076Z,3.60
2023-04-10T10:47:52.039Z,3.97
2023-04-10T10:50:57.410Z,4.13
2023-04-10T10:54:00.170Z,3.95
2023-04-10T10:57:06.388Z,4.45
2023-04-10T11:00:10.263Z,4.22
2023-04-10T11:03:29.596Z,3.90
2023-04-10T11:06:52.952Z,3.85
2023-04-10T11:09:57.264Z,3.90
2023-04-10T11:13:17.138Z,3.63
2023-04-10T11:16:21.276Z,4.07
2023-04-10T11:19:26.440Z,3.92
2023-04-10T11:22:29.228Z,3.58
2023-04-10T11:25:47.396Z,4.13
2023-04-10T11:28:49.997Z,3.88
2023-04-10T11:31:56.719Z,4.40
2023-04-10T11:35:02.405Z,3.60
2023-04-10T11:38:14.831Z,3.65
2023-04-10T11:41:17.394Z,4.20
2023-04-10T11:44:27.978Z,3.92
2023-04-10T11:47:30.621Z,3.92
2023-04-10T11:50:36.130Z,4.57
2023-04-10T11:53:38.827Z,3.67
2023-04-10T11:56:43.150Z,4.07
2023-04-10T11:59:51.409Z,3.70
2023-04-10T12:02:54.218Z,3.88
2023-04-10T12:05:58.418Z,4.22
2023-04-10T12:09:14.297Z,4.60
2023-04-10T12:12:17.283Z,4.10
2023-04-10T12:15:29.688Z,3.85
2023-04-10T12:18:32.666Z,4.47
2023-04-10T12:21:38.485Z,4.32
2023-04-10T12:24:42.531Z,4.35
2023-04-10T12:27:49.805Z,4.50
2023-04-10T12:30:53.801Z,5.18
2023-04-10T12:33:57.895Z,5.10
2023-04-10T12:37:02.813Z,4.85
2023-04-10T12:40:09.257Z,5.47
2023-04-10T12:43:11.715Z,6.43
2023-04-10T12:46:26.613Z,6.13
2023-04-10T12:49:29.104Z,6.65
2023-04-10T12:52:33.269Z,7.10
2023-04-10T12:55:36.008Z,8.18
2023-04-10T12:58:39.274Z,9.15
2023-04-10T13:01:41.859Z,9.32
2023-04-10T13:04:44.640Z,9.57
2023-04-10T13:07:52.640Z,9.63
2023-04-10T13:10:58.149Z,10.35
2023-04-10T13:14:00.924Z,11.23
2023-04-10T13:17:03.483Z,11.60
2023-04-10T13:20:07.410Z,11.85
2023-04-10T13:23:11.355Z,11.00
2023-04-10T13:26:13.851Z,11.55
2023-04-10T13:29:16.297Z,12.38
2023-04-10T13:32:18.763Z,11.82
2023-04-10T13:35:21.869Z,13.15
2023-04-10T13:38:27.457Z,11.15
2023-04-10T13:41:29.901Z,11.85
2023-04-10T13:44:32.479Z,11.18
2023-04-10T13:47:35.028Z,11.23
2023-04-10T13:50:37.567Z,10.93
2023-04-10T13:53:41.589Z,11.07
2023-04-10T13:56:44.469Z,10.13
2023-04-10T13:59:46.951Z,10.18
2023-04-10T14:02:49.507Z,9.80
2023-04-10T14:05:52.701Z,10.73
2023-04-10T14:08:56.711Z,10.18
2023-04-10T14:11:59.466Z,10.05
2023-04-10T14:15:02.088Z,11.10
2023-04-10T14:18:04.707Z,10.75
2023-04-10T14:21:07.878Z,11.55
2023-04-10T14:24:12.020Z,9.93
2023-04-10T14:27:14.640Z,11.27
2023-04-10T14:30:17.126Z,10.13
2023-04-10T14:33:20.808Z,8.88
2023-04-10T14:36:23.328Z,10.88
2023-04-10T14:39:27.186Z,11.95
2023-04-10T14:42:30.110Z,10.80
2023-04-10T14:45:32.660Z,11.35
2023-04-10T14:48:35.355Z,11.55
2023-04-10T14:51:37.866Z,10.30
2023-04-10T14:54:41.647Z,11.75
2023-04-10T14:57:44.185Z,11.50
2023-04-10T15:00:46.654Z,10.52
2023-04-10T15:03:49.377Z,9.95
2023-04-10T15:06:52.306Z,10.95
2023-04-10T15:09:58.567Z,11.23
2023-04-10T15:13:01.026Z,12.02
2023-04-10T15:16:03.493Z,10.38
2023-04-10T15:19:06.044Z,11.13
2023-04-10T15:22:08.501Z,10.52
2023-04-10T15:25:12.754Z,9.93
2023-04-10T15:28:15.318Z,9.48
2023-04-10T15:31:17.865Z,8.75
2023-04-10T15:34:20.474Z,9.05
2023-04-10T15:37:24.199Z,8.27
2023-04-10T15:40:29.281Z,9.45
2023-04-10T15:43:31.761Z,8.35
2023-04-10T15:46:34.457Z,8.43
2023-04-10T15:49:38.299Z,9.05
2023-04-10T15:52:41.503Z,9.20
2023-04-10T15:55:45.382Z,8.93
2023-04-10T15:58:47.851Z,8.18
2023-04-10T16:01:50.538Z,7.93
2023-04-10T16:04:53.235Z,8.07
2023-04-10T16:07:56.110Z,7.43
2023-04-10T16:10:59.895Z,7.68
2023-04-10T16:14:02.450Z,6.90
2023-04-10T16:17:04.918Z,7.28
2023-04-10T16:20:08.251Z,7.28
2023-04-10T16:23:10.914Z,7.75
2023-04-10T16:26:14.835Z,7.10
2023-04-10T16:29:19.959Z,8.60
2023-04-10T16:32:22.465Z,8.20
2023-04-10T16:35:24.984Z,8.75
2023-04-10T16:38:27.483Z,8.07
2023-04-10T16:41:31.358Z,8.25
2023-04-10T16:44:33.822Z,7.95
2023-04-10T16:47:36.473Z,8.48
2023-04-10T16:50:39.129Z,8.95
2023-04-10T16:53:41.658Z,8.30
2023-04-10T16:56:45.655Z,7.93
2023-04-10T16:59:48.132Z,8.43
2023-04-10T17:02:50.834Z,7.68
2023-04-10T17:05:53.331Z,8.50
2023-04-10T17:08:55.929Z,8.90
2023-04-10T17:11:59.958Z,8.52
2023-04-10T17:15:02.487Z,8.27
2023-04-10T17:18:05.013Z,8.50
2023-04-10T17:21:11.985Z,8.70
2023-04-10T17:24:14.904Z,7.72
2023-04-10T17:27:20.270Z,8.07
2023-04-10T17:30:22.733Z,7.65
2023-04-10T17:33:25.198Z,7.95
2023-04-10T17:36:28.100Z,7.78
2023-04-10T17:39:30.690Z,7.72
2023-04-10T17:42:34.531Z,7.97
2023-04-10T17:45:38.183Z,8.00
2023-04-10T17:48:40.713Z,7.05
2023-04-10T17:51:43.225Z,8.10
2023-04-10T17:54:45.680Z,8.05
2023-04-10T17:57:49.564Z,7.65
2023-04-10T18:00:52.243Z,8.88
2023-04-10T18:03:54.898Z,8.45
2023-04-10T18:06:57.412Z,8.40
2023-04-10T18:09:59.869Z,7.95
2023-04-10T18:13:03.678Z,7.75
2023-04-10T18:16:07.103Z,6.97
2023-04-10T18:19:10.005Z,7.82
2023-04-10T18:22:12.692Z,7.60
2023-04-10T18:25:15.631Z,7.53
2023-04-10T18:28:20.528Z,7.45
2023-04-10T18:31:23.069Z,7.47
2023-04-10T18:34:25.548Z,7.75
2023-04-10T18:37:28.038Z,8.25
2023-04-10T18:40:30.591Z,8.05
2023-04-10T18:43:34.411Z,8.35
2023-04-10T18:46:36.983Z,8.07
2023-04-10T18:49:39.658Z,9.10
2023-04-10T18:52:42.121Z,8.82
2023-04-10T18:55:51.372Z,9.98
2023-04-10T18:58:55.175Z,9.20
2023-04-10T19:01:57.729Z,9.50
2023-04-10T19:05:00.419Z,10.02
2023-04-10T19:08:04.545Z,10.15
2023-04-10T19:11:08.327Z,9.70
2023-04-10T19:14:12.135Z,9.65
2023-04-10T19:17:14.608Z,9.10
2023-04-10T19:20:17.071Z,9.15
2023-04-10T19:23:39.499Z,9.57
2023-04-10T19:26:42.028Z,9.48
2023-04-10T19:29:45.946Z,10.27
2023-04-10T19:32:48.456Z,9.98
2023-04-10T19:35:51.060Z,8.77
2023-04-10T19:38:53.901Z,9.48
2023-04-10T19:41:57.702Z,9.00
2023-04-10T19:45:01.546Z,9.00
2023-04-10T19:48:05.118Z,9.38
2023-04-10T19:51:07.764Z,8.50
2023-04-10T19:54:10.339Z,8.23
2023-04-10T19:57:12.881Z,8.50
2023-04-10T20:00:17.090Z,9.25
2023-04-10T20:03:26.449Z,8.50
2023-04-10T20:06:29.084Z,8.57
2023-04-10T20:09:34.096Z,8.18
2023-04-10T20:12:36.684Z,9.05
2023-04-10T20:15:40.586Z,8.98
2023-04-10T20:18:43.077Z,8.80
2023-04-10T20:21:45.612Z,8.07
2023-04-10T20:24:48.212Z,8.27
2023-04-10T20:27:50.777Z,8.18
2023-04-10T20:30:54.583Z,9.30
2023-04-10T20:33:57.163Z,8.75
2023-04-10T20:37:00.761Z,8.45
2023-04-10T20:40:03.384Z,8.07
2023-04-10T20:43:10.881Z,8.30
2023-04-10T20:46:14.846Z,9.10
2023-04-10T20:49:17.628Z,8.65
2023-04-10T20:52:20.182Z,9.07
2023-04-10T20:55:22.689Z,9.57
2023-04-10T20:58:25.248Z,8.05
2023-04-10T21:01:29.382Z,8.98
2023-04-10T21:04:32.675Z,8.55
2023-04-10T21:07:35.216Z,7.75
2023-04-10T21:10:43.889Z,8.85
2023-04-10T21:13:46.495Z,8.45
2023-04-10T21:16:50.456Z,9.18
2023-04-10T21:19:53.036Z,8.23
2023-04-10T21:22:55.541Z,8.98
2023-04-10T21:25:58.128Z,8.63
2023-04-10T21:29:00.599Z,8.55
2023-04-10T21:32:04.564Z,8.77
2023-04-10T21:35:08.417Z,9.25
2023-04-10T21:38:12.466Z,8.70
2023-04-10T21:41:15.368Z,8.95
2023-04-10T21:44:18.094Z,8.70
2023-04-10T21:47:22.026Z,9.25
2023-04-10T21:50:25.599Z,8.57
2023-04-10T21:53:28.340Z,8.77
2023-04-10T21:56:30.806Z,7.93
2023-04-10T21:59:33.410Z,7.93
2023-04-10T22:02:37.383Z,8.68
2023-04-10T22:05:39.973Z,8.35
2023-04-10T22:08:42.576Z,7.88
